createdAt,value
2022-12-26T00:00:43.139Z,338
2022-12-26T00:02:49.016Z,339
2022-12-26T00:04:57.190Z,338
2022-12-26T00:07:03.454Z,338
2022-12-26T00:09:08.910Z,339
2022-12-26T00:11:14.096Z,339
2022-12-26T00:13:43.410Z,338
2022-12-26T00:15:48.831Z,339
2022-12-26T00:17:54.407Z,338
2022-12-26T00:19:59.652Z,338
2022-12-26T00:22:05.100Z,339
2022-12-26T00:24:10.484Z,338
2022-12-26T00:26:16.091Z,338
2022-12-26T00:28:21.425Z,338
2022-12-26T00:30:27.135Z,339
2022-12-26T00:32:32.588Z,339
2022-12-26T00:34:38.130Z,339
2022-12-26T00:36:43.622Z,338
2022-12-26T00:38:48.923Z,338
2022-12-26T00:40:55.997Z,338
2022-12-26T00:43:01.371Z,338
2022-12-26T00:45:06.821Z,338
2022-12-26T00:47:13.758Z,339
2022-12-26T00:49:19.615Z,338
2022-12-26T00:51:25.120Z,339
2022-12-26T00:53:30.669Z,339
2022-12-26T00:55:35.787Z,339
2022-12-26T00:57:40.943Z,339
2022-12-26T00:59:46.417Z,339
2022-12-26T01:01:52.625Z,339
2022-12-26T01:03:58.560Z,339
2022-12-26T01:06:03.981Z,339
2022-12-26T01:08:26.088Z,339
2022-12-26T01:10:31.398Z,339
2022-12-26T01:12:36.749Z,339
2022-12-26T01:14:41.954Z,339
2022-12-26T01:16:47.374Z,339
2022-12-26T01:18:52.708Z,339
2022-12-26T01:20:58.111Z,339
2022-12-26T01:23:03.137Z,339
2022-12-26T01:25:08.816Z,339
2022-12-26T01:27:14.222Z,339
2022-12-26T01:29:19.558Z,339
2022-12-26T01:31:25.052Z,339
2022-12-26T01:33:30.599Z,339
2022-12-26T01:35:35.855Z,339
2022-12-26T01:37:40.875Z,339
2022-12-26T01:39:46.177Z,339
2022-12-26T01:41:51.453Z,339
2022-12-26T01:43:56.862Z,338
2022-12-26T01:46:02.261Z,339
2022-12-26T01:48:07.751Z,339
2022-12-26T01:50:13.058Z,339
2022-12-26T01:52:18.324Z,339
2022-12-26T01:54:44.475Z,339
2022-12-26T01:56:49.822Z,339
2022-12-26T01:58:55.111Z,339
2022-12-26T02:01:00.367Z,339
2022-12-26T02:03:05.964Z,339
2022-12-26T02:05:11.354Z,339
2022-12-26T02:07:16.661Z,339
2022-12-26T02:09:21.953Z,339
2022-12-26T02:11:27.200Z,339
2022-12-26T02:13:32.459Z,339
2022-12-26T02:15:37.997Z,339
2022-12-26T02:17:43.655Z,339
2022-12-26T02:19:48.803Z,339
2022-12-26T02:21:53.984Z,339
2022-12-26T02:23:59.558Z,339
2022-12-26T02:26:05.047Z,339
2022-12-26T02:28:10.301Z,339
2022-12-26T02:30:15.638Z,339
2022-12-26T02:32:21.041Z,339
2022-12-26T02:34:26.332Z,339
2022-12-26T02:36:31.462Z,339
2022-12-26T02:38:36.608Z,339
2022-12-26T02:40:42.120Z,339
2022-12-26T02:42:47.674Z,339
2022-12-26T02:44:53.379Z,339
2022-12-26T02:46:58.579Z,339
2022-12-26T02:49:04.262Z,339
2022-12-26T02:51:09.604Z,339
2022-12-26T02:53:15.022Z,339
2022-12-26T02:55:20.982Z,339
2022-12-26T02:57:26.535Z,339
2022-12-26T02:59:59.378Z,339
2022-12-26T03:02:05.758Z,339
2022-12-26T03:04:11.840Z,339
2022-12-26T03:06:17.512Z,339
2022-12-26T03:08:22.659Z,339
2022-12-26T03:10:27.943Z,339
2022-12-26T03:12:33.390Z,339
2022-12-26T03:14:38.792Z,339
2022-12-26T03:16:44.343Z,339
2022-12-26T03:19:02.273Z,339
2022-12-26T03:21:07.761Z,339
2022-12-26T03:23:12.883Z,339
2022-12-26T03:25:18.000Z,339
2022-12-26T03:27:23.257Z,339
2022-12-26T03:29:28.893Z,339
2022-12-26T03:31:34.341Z,339
2022-12-26T03:33:39.636Z,339
2022-12-26T03:35:45.096Z,339
2022-12-26T03:37:52.718Z,339
2022-12-26T03:39:59.812Z,339
2022-12-26T03:42:05.118Z,339
2022-12-26T03:44:10.217Z,339
2022-12-26T03:46:15.586Z,339
2022-12-26T03:48:20.836Z,339
2022-12-26T03:50:25.909Z,338
2022-12-26T03:52:31.229Z,338
2022-12-26T03:54:36.791Z,338
2022-12-26T03:56:42.370Z,338
2022-12-26T03:58:47.814Z,338
2022-12-26T04:00:52.949Z,338
2022-12-26T04:02:58.510Z,338
2022-12-26T04:05:03.936Z,338
2022-12-26T04:07:09.493Z,338
2022-12-26T04:09:14.825Z,338
2022-12-26T04:11:19.912Z,337
2022-12-26T04:13:25.387Z,337
2022-12-26T04:15:31.005Z,337
2022-12-26T04:17:36.437Z,337
2022-12-26T04:19:41.639Z,337
2022-12-26T04:21:46.783Z,337
2022-12-26T04:23:51.859Z,337
2022-12-26T04:25:56.975Z,337
2022-12-26T04:28:02.551Z,337
2022-12-26T04:30:08.050Z,337
2022-12-26T04:32:13.123Z,337
2022-12-26T04:34:18.520Z,336
2022-12-26T04:36:25.062Z,337
2022-12-26T04:38:30.445Z,337
2022-12-26T04:40:36.373Z,336
2022-12-26T04:42:41.867Z,336
2022-12-26T04:44:47.136Z,336
2022-12-26T04:46:52.437Z,336
2022-12-26T04:48:59.089Z,336
2022-12-26T04:51:07.333Z,336
2022-12-26T04:53:12.545Z,336
2022-12-26T04:55:17.878Z,336
2022-12-26T04:57:24.417Z,336
2022-12-26T04:59:29.482Z,336
2022-12-26T05:01:35.379Z,336
2022-12-26T05:03:41.253Z,336
2022-12-26T05:05:46.623Z,336
2022-12-26T05:07:51.869Z,336
2022-12-26T05:09:58.592Z,336
2022-12-26T05:12:03.884Z,336
2022-12-26T05:14:09.455Z,336
2022-12-26T05:16:15.113Z,336
2022-12-26T05:18:22.693Z,336
2022-12-26T05:20:27.883Z,334
2022-12-26T05:22:33.027Z,336
2022-12-26T05:24:38.471Z,334
2022-12-26T05:26:43.789Z,334
2022-12-26T05:28:49.154Z,334
2022-12-26T05:30:54.677Z,336
2022-12-26T05:32:59.818Z,334
2022-12-26T05:35:06.084Z,334
2022-12-26T05:37:11.048Z,334
2022-12-26T05:39:16.526Z,334
2022-12-26T05:41:21.862Z,334
2022-12-26T05:43:27.165Z,334
2022-12-26T05:45:32.478Z,334
2022-12-26T05:47:37.736Z,334
2022-12-26T05:49:43.058Z,334
2022-12-26T05:51:48.030Z,334
2022-12-26T05:53:53.373Z,334
2022-12-26T05:55:58.750Z,334
2022-12-26T05:58:04.777Z,334
2022-12-26T06:00:09.978Z,334
2022-12-26T06:02:15.787Z,334
2022-12-26T06:04:21.613Z,334
2022-12-26T06:06:26.947Z,334
2022-12-26T06:08:32.146Z,333
2022-12-26T06:10:37.452Z,333
2022-12-26T06:12:43.071Z,333
2022-12-26T06:14:48.366Z,334
2022-12-26T06:16:54.123Z,333
2022-12-26T06:18:59.772Z,333
2022-12-26T06:21:05.168Z,333
2022-12-26T06:23:10.207Z,332
2022-12-26T06:25:15.530Z,333
2022-12-26T06:27:21.653Z,333
2022-12-26T06:29:27.328Z,333
2022-12-26T06:31:33.030Z,331
2022-12-26T06:33:39.097Z,332
2022-12-26T06:35:44.423Z,331
2022-12-26T06:37:49.646Z,332
2022-12-26T06:39:55.002Z,331
2022-12-26T06:42:00.385Z,331
2022-12-26T06:44:05.750Z,331
2022-12-26T06:46:11.332Z,331
2022-12-26T06:48:16.992Z,331
2022-12-26T06:50:22.480Z,331
2022-12-26T06:52:27.471Z,331
2022-12-26T06:54:32.919Z,331
2022-12-26T06:56:38.641Z,331
2022-12-26T06:58:43.965Z,331
2022-12-26T07:00:50.096Z,331
2022-12-26T07:02:55.779Z,331
2022-12-26T07:05:05.468Z,331
2022-12-26T07:07:10.968Z,331
2022-12-26T07:09:16.988Z,331
2022-12-26T07:11:23.335Z,331
2022-12-26T07:13:29.079Z,331
2022-12-26T07:15:34.983Z,331
2022-12-26T07:17:40.651Z,331
2022-12-26T07:19:46.239Z,331
2022-12-26T07:21:52.236Z,331
2022-12-26T07:23:58.136Z,331
2022-12-26T07:26:04.324Z,331
2022-12-26T07:28:10.201Z,331
2022-12-26T07:30:23.858Z,331
2022-12-26T07:32:30.068Z,331
2022-12-26T07:34:35.732Z,331
2022-12-26T07:36:41.636Z,331
2022-12-26T07:38:47.133Z,331
2022-12-26T07:40:53.331Z,331
2022-12-26T07:42:59.637Z,331
2022-12-26T07:45:05.197Z,331
2022-12-26T07:47:11.160Z,331
2022-12-26T07:49:17.168Z,331
2022-12-26T07:51:43.530Z,331
2022-12-26T07:53:49.908Z,331
2022-12-26T07:55:56.174Z,331
2022-12-26T07:58:02.551Z,331
2022-12-26T08:00:08.502Z,331
2022-12-26T08:02:15.680Z,331
2022-12-26T08:04:22.226Z,331
2022-12-26T08:06:28.779Z,331
2022-12-26T08:08:34.347Z,331
2022-12-26T08:10:40.433Z,331
2022-12-26T08:12:46.746Z,331
2022-12-26T08:14:52.915Z,331
2022-12-26T08:16:59.084Z,331
2022-12-26T08:19:05.828Z,331
2022-12-26T08:21:11.972Z,331
2022-12-26T08:23:18.083Z,331
2022-12-26T08:25:25.147Z,331
2022-12-26T08:27:31.132Z,331
2022-12-26T08:29:37.210Z,331
2022-12-26T08:31:44.083Z,331
2022-12-26T08:33:50.225Z,331
2022-12-26T08:35:56.358Z,331
2022-12-26T08:38:02.409Z,331
2022-12-26T08:40:09.387Z,331
2022-12-26T08:42:17.693Z,331
2022-12-26T08:44:32.379Z,331
2022-12-26T08:46:38.522Z,331
2022-12-26T08:48:44.681Z,331
2022-12-26T08:50:50.798Z,331
2022-12-26T08:52:57.779Z,331
2022-12-26T08:55:03.366Z,331
2022-12-26T08:57:09.348Z,331
2022-12-26T08:59:16.338Z,331
2022-12-26T09:01:23.121Z,331
2022-12-26T09:03:29.366Z,331
2022-12-26T09:05:35.455Z,331
2022-12-26T09:07:41.267Z,331
2022-12-26T09:09:47.272Z,331
2022-12-26T09:11:53.229Z,331
2022-12-26T09:13:59.828Z,331
2022-12-26T09:16:06.362Z,331
2022-12-26T09:18:13.170Z,331
2022-12-26T09:20:19.841Z,331
2022-12-26T09:22:28.256Z,331
2022-12-26T09:24:40.091Z,331
2022-12-26T09:26:46.447Z,331
2022-12-26T09:28:52.834Z,331
2022-12-26T09:30:59.555Z,331
2022-12-26T09:33:05.793Z,331
2022-12-26T09:35:13.168Z,331
2022-12-26T09:37:19.507Z,331
2022-12-26T09:39:25.893Z,331
2022-12-26T09:41:32.331Z,331
2022-12-26T09:43:38.530Z,331
2022-12-26T09:45:48.443Z,331
2022-12-26T09:47:54.711Z,331
2022-12-26T09:50:01.165Z,331
2022-12-26T09:52:06.657Z,331
2022-12-26T09:54:12.829Z,331
2022-12-26T09:57:06.366Z,331
2022-12-26T09:59:19.973Z,331
2022-12-26T10:01:26.538Z,331
2022-12-26T10:03:32.768Z,331
2022-12-26T10:05:39.142Z,331
2022-12-26T10:07:45.414Z,331
2022-12-26T10:09:53.366Z,331
2022-12-26T10:11:59.667Z,331
2022-12-26T10:14:07.605Z,331
2022-12-26T10:16:14.028Z,331
2022-12-26T10:18:20.606Z,331
2022-12-26T10:20:27.968Z,331
2022-12-26T10:22:36.691Z,331
2022-12-26T10:24:43.450Z,331
2022-12-26T10:26:50.122Z,331
2022-12-26T10:28:56.184Z,331
2022-12-26T10:31:03.946Z,331
2022-12-26T10:33:10.691Z,331
2022-12-26T10:35:17.086Z,331
2022-12-26T10:37:23.853Z,331
2022-12-26T10:39:31.683Z,331
2022-12-26T10:41:38.485Z,331
2022-12-26T10:43:45.101Z,331
2022-12-26T10:45:55.428Z,331
2022-12-26T10:48:01.747Z,331
2022-12-26T10:50:07.951Z,331
2022-12-26T10:52:15.315Z,331
2022-12-26T10:54:21.408Z,331
2022-12-26T10:56:26.971Z,331
2022-12-26T10:58:33.171Z,331
2022-12-26T11:00:40.637Z,331
2022-12-26T11:02:47.502Z,331
2022-12-26T11:08:26.819Z,331
2022-12-26T11:10:33.537Z,331
2022-12-26T11:12:39.015Z,331
2022-12-26T11:14:44.399Z,331
2022-12-26T11:16:50.330Z,331
2022-12-26T11:18:56.372Z,331
2022-12-26T11:21:05.647Z,331
2022-12-26T11:23:18.280Z,331
2022-12-26T11:25:24.883Z,331
2022-12-26T11:27:31.780Z,331
2022-12-26T11:40:28.414Z,331
2022-12-26T11:42:34.945Z,331
2022-12-26T11:44:41.072Z,331
2022-12-26T11:46:47.636Z,331
2022-12-26T11:48:54.302Z,331
2022-12-26T11:51:02.311Z,331
2022-12-26T11:53:09.277Z,331
2022-12-26T11:55:15.056Z,331
2022-12-26T11:57:24.240Z,331
2022-12-26T11:59:30.980Z,331
2022-12-26T12:01:37.704Z,331
2022-12-26T12:03:52.196Z,331
2022-12-26T12:05:58.590Z,331
2022-12-26T12:08:04.773Z,331
2022-12-26T12:10:11.890Z,331
2022-12-26T12:12:18.461Z,331
2022-12-26T12:14:25.050Z,331
2022-12-26T12:16:32.046Z,331
2022-12-26T12:18:38.203Z,331
2022-12-26T12:20:51.937Z,331
2022-12-26T12:22:58.944Z,331
2022-12-26T12:25:06.172Z,331
2022-12-26T12:27:12.968Z,331
2022-12-26T12:29:19.019Z,331
2022-12-26T12:31:25.637Z,331
2022-12-26T12:33:31.530Z,331
2022-12-26T12:35:38.356Z,331
2022-12-26T12:37:44.675Z,332
2022-12-26T12:39:51.055Z,331
2022-12-26T12:41:57.819Z,331
2022-12-26T12:44:04.152Z,331
2022-12-26T12:46:12.955Z,332
2022-12-26T12:48:19.220Z,332
2022-12-26T12:50:25.743Z,331
2022-12-26T12:52:31.877Z,332
2022-12-26T12:54:37.988Z,331
2022-12-26T12:56:47.231Z,332
2022-12-26T12:59:01.662Z,331
2022-12-26T13:01:14.153Z,331
2022-12-26T13:03:23.494Z,331
2022-12-26T13:05:34.109Z,332
2022-12-26T13:07:56.591Z,331
2022-12-26T13:10:08.895Z,333
2022-12-26T13:12:15.153Z,333
2022-12-26T13:14:22.679Z,332
2022-12-26T13:16:32.517Z,333
2022-12-26T13:18:41.533Z,333
2022-12-26T13:20:53.799Z,333
2022-12-26T13:23:07.006Z,333
2022-12-26T13:25:16.996Z,332
2022-12-26T13:27:24.439Z,332
2022-12-26T13:29:42.119Z,333
2022-12-26T13:31:54.559Z,333
2022-12-26T13:34:08.912Z,332
2022-12-26T13:36:15.614Z,333
2022-12-26T13:38:25.768Z,333
2022-12-26T13:53:21.015Z,334
2022-12-26T13:55:36.746Z,333
2022-12-26T13:57:44.323Z,333
2022-12-26T13:59:54.560Z,334
2022-12-26T14:05:49.677Z,334
2022-12-26T14:08:04.149Z,334
2022-12-26T14:10:41.809Z,333
2022-12-26T14:13:30.936Z,334
2022-12-26T14:15:42.876Z,333
2022-12-26T14:17:52.621Z,334
2022-12-26T14:20:05.224Z,334
2022-12-26T14:22:26.194Z,334
2022-12-26T14:24:38.298Z,334
2022-12-26T14:26:49.634Z,333
2022-12-26T14:28:57.395Z,334
2022-12-26T14:31:08.381Z,334
2022-12-26T14:33:20.107Z,334
2022-12-26T14:35:27.290Z,334
2022-12-26T14:37:34.127Z,334
2022-12-26T14:39:46.645Z,334
2022-12-26T14:42:05.211Z,334
2022-12-26T14:44:14.010Z,334
2022-12-26T14:46:25.011Z,334
2022-12-26T14:48:32.739Z,334
2022-12-26T14:50:43.453Z,334
2022-12-26T15:10:51.939Z,334
2022-12-26T15:13:27.518Z,334
2022-12-26T15:55:43.760Z,334
2022-12-26T16:00:44.029Z,334
2022-12-26T16:02:51.873Z,336
2022-12-26T16:05:09.575Z,336
2022-12-26T16:07:26.342Z,334
2022-12-26T16:09:37.227Z,334
2022-12-26T16:11:43.980Z,334
2022-12-26T16:13:52.767Z,334
2022-12-26T16:18:59.128Z,334
2022-12-26T16:21:06.160Z,334
2022-12-26T16:23:13.446Z,334
2022-12-26T16:25:23.545Z,334
2022-12-26T16:27:30.262Z,336
2022-12-26T16:29:39.515Z,336
2022-12-26T16:31:49.286Z,336
2022-12-26T16:33:55.938Z,336
2022-12-26T16:36:35.783Z,336
2022-12-26T16:38:45.686Z,336
2022-12-26T16:40:52.455Z,336
2022-12-26T16:43:00.398Z,336
2022-12-26T16:45:07.227Z,336
2022-12-26T16:47:14.460Z,336
2022-12-26T16:49:21.093Z,336
2022-12-26T16:51:27.661Z,336
2022-12-26T16:53:35.085Z,336
2022-12-26T16:55:43.143Z,336
2022-12-26T16:57:50.067Z,336
2022-12-26T16:59:55.980Z,336
2022-12-26T17:02:04.764Z,336
2022-12-26T17:04:11.634Z,336
2022-12-26T17:06:18.911Z,336
2022-12-26T17:08:58.394Z,336
2022-12-26T17:11:05.441Z,336
2022-12-26T17:13:11.199Z,336
2022-12-26T17:15:17.142Z,336
2022-12-26T17:17:24.925Z,336
2022-12-26T17:19:31.952Z,336
2022-12-26T17:21:38.720Z,336
2022-12-26T17:27:10.996Z,336
2022-12-26T17:32:40.994Z,336
2022-12-26T17:34:54.967Z,336
2022-12-26T17:37:33.890Z,336
2022-12-26T17:39:41.980Z,336
2022-12-26T17:41:50.838Z,336
2022-12-26T17:43:57.797Z,336
2022-12-26T17:46:08.718Z,336
2022-12-26T17:48:18.971Z,336
2022-12-26T17:50:25.776Z,336
2022-12-26T17:52:32.721Z,336
2022-12-26T17:54:43.032Z,336
2022-12-26T18:00:20.010Z,336
2022-12-26T18:02:27.567Z,336
2022-12-26T18:04:35.334Z,336
2022-12-26T18:06:42.412Z,336
2022-12-26T18:08:49.813Z,336
2022-12-26T18:10:56.708Z,336
2022-12-26T18:13:03.341Z,336
2022-12-26T18:15:09.013Z,336
2022-12-26T18:17:15.223Z,336
2022-12-26T18:19:24.437Z,336
2022-12-26T18:21:31.820Z,336
2022-12-26T18:23:38.032Z,336
2022-12-26T18:25:54.692Z,336
2022-12-26T18:28:03.716Z,336
2022-12-26T18:30:12.065Z,336
2022-12-26T18:32:20.028Z,336
2022-12-26T18:34:30.582Z,336
2022-12-26T18:36:37.518Z,336
2022-12-26T18:38:44.826Z,336
2022-12-26T18:40:54.974Z,337
2022-12-26T18:43:03.435Z,336
2022-12-26T18:45:10.552Z,336
2022-12-26T18:47:17.996Z,337
2022-12-26T18:49:25.538Z,336
2022-12-26T18:51:34.586Z,336
2022-12-26T18:53:40.143Z,336
2022-12-26T18:55:50.020Z,336
2022-12-26T19:02:26.409Z,336
2022-12-26T19:08:06.813Z,336
2022-12-26T19:10:14.369Z,336
2022-12-26T19:12:21.054Z,336
2022-12-26T19:14:27.092Z,336
2022-12-26T19:16:35.079Z,336
2022-12-26T19:18:42.690Z,336
2022-12-26T19:20:51.094Z,336
2022-12-26T19:23:40.998Z,336
2022-12-26T19:25:48.433Z,336
2022-12-26T19:27:58.391Z,336
2022-12-26T19:30:06.607Z,336
2022-12-26T19:32:14.415Z,336
2022-12-26T19:34:21.654Z,336
2022-12-26T19:36:29.903Z,336
2022-12-26T19:38:38.092Z,336
2022-12-26T19:40:45.502Z,334
2022-12-26T19:42:54.578Z,336
2022-12-26T19:45:04.047Z,334
2022-12-26T19:47:15.820Z,334
2022-12-26T19:49:37.888Z,334
2022-12-26T19:51:44.693Z,334
2022-12-26T19:53:55.876Z,334
2022-12-26T19:56:03.444Z,334
2022-12-26T19:58:16.129Z,334
2022-12-26T20:00:23.468Z,334
2022-12-26T20:02:30.592Z,334
2022-12-26T20:04:39.285Z,334
2022-12-26T20:06:51.927Z,334
2022-12-26T20:09:01.304Z,334
2022-12-26T20:11:09.124Z,334
2022-12-26T20:13:19.441Z,334
2022-12-26T20:15:28.225Z,334
2022-12-26T20:17:35.549Z,332
2022-12-26T20:19:42.249Z,334
2022-12-26T20:21:52.958Z,334
2022-12-26T20:24:01.129Z,334
2022-12-26T20:26:07.931Z,333
2022-12-26T20:28:16.331Z,333
2022-12-26T20:30:24.559Z,333
2022-12-26T20:32:33.418Z,332
2022-12-26T20:34:41.031Z,332
2022-12-26T20:36:48.988Z,331
2022-12-26T20:38:55.508Z,331
2022-12-26T20:41:10.469Z,331
2022-12-26T20:43:19.014Z,331
2022-12-26T20:45:27.293Z,331
2022-12-26T20:47:39.084Z,331
2022-12-26T20:49:47.018Z,331
2022-12-26T20:51:59.184Z,331
2022-12-26T20:54:08.958Z,331
2022-12-26T20:56:18.253Z,331
2022-12-26T20:58:28.690Z,331
2022-12-26T21:00:36.260Z,331
2022-12-26T21:02:47.066Z,331
2022-12-26T21:04:54.673Z,331
2022-12-26T21:07:01.591Z,331
2022-12-26T21:09:09.168Z,331
2022-12-26T21:11:15.702Z,331
2022-12-26T21:13:23.049Z,331
2022-12-26T21:15:29.264Z,331
2022-12-26T21:17:36.856Z,331
2022-12-26T21:19:43.756Z,331
2022-12-26T21:21:51.106Z,331
2022-12-26T21:23:59.123Z,331
2022-12-26T21:26:07.335Z,331
2022-12-26T21:28:18.311Z,331
2022-12-26T21:30:27.197Z,331
2022-12-26T21:32:33.676Z,331
2022-12-26T21:34:44.044Z,331
2022-12-26T21:36:50.675Z,331
2022-12-26T21:38:56.944Z,331
2022-12-26T21:41:05.356Z,331
2022-12-26T21:43:11.463Z,331
2022-12-26T21:45:16.890Z,331
2022-12-26T21:47:23.451Z,331
2022-12-26T21:49:30.206Z,331
2022-12-26T21:51:36.326Z,331
2022-12-26T21:53:47.422Z,331
2022-12-26T21:55:52.971Z,331
2022-12-26T21:57:58.679Z,330
2022-12-26T22:00:04.795Z,331
2022-12-26T22:02:11.998Z,330
2022-12-26T22:04:18.987Z,330
2022-12-26T22:06:25.018Z,330
2022-12-26T22:08:33.536Z,330
2022-12-26T22:10:41.289Z,331
2022-12-26T22:12:47.335Z,330
2022-12-26T22:14:54.337Z,330
2022-12-26T22:17:01.326Z,330
2022-12-26T22:19:07.091Z,330
2022-12-26T22:21:13.558Z,331
2022-12-26T22:23:20.053Z,331
2022-12-26T22:25:26.326Z,331
2022-12-26T22:27:32.236Z,330
2022-12-26T22:29:38.153Z,331
2022-12-26T22:31:44.095Z,330
2022-12-26T22:33:50.460Z,331
2022-12-26T22:35:55.782Z,331
2022-12-26T22:38:01.178Z,330
2022-12-26T22:40:12.271Z,331
2022-12-26T22:42:18.095Z,331
2022-12-26T22:44:23.913Z,331
2022-12-26T22:46:29.581Z,331
2022-12-26T22:48:35.231Z,331
2022-12-26T22:50:56.225Z,330
2022-12-26T22:53:01.955Z,330
2022-12-26T22:55:07.368Z,331
2022-12-26T22:57:13.773Z,331
2022-12-26T23:00:11.028Z,330
2022-12-26T23:02:21.905Z,330
2022-12-26T23:04:31.314Z,331
2022-12-26T23:06:36.609Z,331
2022-12-26T23:08:42.037Z,331
2022-12-26T23:10:49.780Z,331
2022-12-26T23:12:55.054Z,331
2022-12-26T23:15:01.807Z,331
2022-12-26T23:17:07.610Z,331
2022-12-26T23:19:13.169Z,331
2022-12-26T23:21:18.689Z,331
2022-12-26T23:23:23.962Z,331
2022-12-26T23:25:29.620Z,331
2022-12-26T23:27:37.502Z,331
2022-12-26T23:29:42.745Z,331
2022-12-26T23:31:51.261Z,331
2022-12-26T23:33:56.701Z,331
2022-12-26T23:36:02.327Z,331
2022-12-26T23:38:07.741Z,331
2022-12-26T23:40:13.147Z,331
2022-12-26T23:42:20.750Z,331
2022-12-26T23:44:29.846Z,331
2022-12-26T23:46:35.661Z,331
2022-12-26T23:48:41.175Z,331
2022-12-26T23:50:46.466Z,331
2022-12-26T23:52:51.551Z,331
2022-12-26T23:54:57.028Z,331
2022-12-26T23:57:02.188Z,331
2022-12-26T23:59:07.580Z,331
